createdAt,value
2019-05-29T00:01:54.276Z,95155.47
2019-05-29T00:04:23.515Z,95154.17
2019-05-29T00:06:52.697Z,95146.61
2019-05-29T00:09:22.292Z,95146.86
2019-05-29T00:11:51.622Z,95147.08
2019-05-29T00:14:27.173Z,95148.07
2019-05-29T00:16:52.847Z,95151.74
2019-05-29T00:19:22.089Z,95150.02
2019-05-29T00:21:51.654Z,95147.45
2019-05-29T00:24:21.149Z,95152.80
2019-05-29T00:26:52.214Z,95146.81
2019-05-29T00:29:21.809Z,95153.56
2019-05-29T00:32:11.909Z,95149.34
2019-05-29T00:34:41.210Z,95145.92
2019-05-29T00:37:10.525Z,95139.11
2019-05-29T00:39:39.976Z,95147.20
2019-05-29T00:42:09.202Z,95153.79
2019-05-29T00:44:38.387Z,95152.41
2019-05-29T00:47:07.619Z,95153.10
2019-05-29T00:49:36.804Z,95146.91
2019-05-29T00:52:06.052Z,95152.52
2019-05-29T00:54:35.241Z,95152.52
2019-05-29T00:57:05.512Z,95148.20
2019-05-29T00:59:34.696Z,95157.30
2019-05-29T01:02:04.347Z,95151.36
2019-05-29T01:04:33.502Z,95153.27
2019-05-29T01:07:02.780Z,95156.09
2019-05-29T01:09:32.260Z,95153.81
2019-05-29T01:12:01.499Z,95164.42
2019-05-29T01:14:30.683Z,95159.20
2019-05-29T01:16:59.990Z,95161.67
2019-05-29T01:19:29.187Z,95165.81
2019-05-29T01:21:58.389Z,95168.23
2019-05-29T01:24:28.015Z,95164.95
2019-05-29T01:26:57.610Z,95163.27
2019-05-29T01:29:27.263Z,95163.35
2019-05-29T01:34:46.326Z,95169.62
2019-05-29T01:37:16.119Z,95167.02
2019-05-29T01:39:46.484Z,95172.55
2019-05-29T01:42:15.668Z,95171.14
2019-05-29T01:44:44.924Z,95176.45
2019-05-29T01:47:15.342Z,95174.90
2019-05-29T01:49:45.393Z,95177.09
2019-05-29T01:52:15.519Z,95174.56
2019-05-29T01:54:45.928Z,95174.65
2019-05-29T01:57:15.759Z,95180.62
2019-05-29T01:59:46.146Z,95181.98
2019-05-29T02:02:15.757Z,95182.45
2019-05-29T02:04:46.752Z,95183.80
2019-05-29T02:07:15.941Z,95184.30
2019-05-29T02:09:45.128Z,95195.19
2019-05-29T02:12:14.383Z,95194.89
2019-05-29T02:14:43.583Z,95198.28
2019-05-29T02:17:12.896Z,95198.39
2019-05-29T02:19:42.099Z,95202.56
2019-05-29T02:22:11.613Z,95205.44
2019-05-29T02:24:40.808Z,95205.54
2019-05-29T02:27:10.057Z,95209.41
2019-05-29T02:29:39.623Z,95202.61
2019-05-29T02:32:08.869Z,95202.14
2019-05-29T02:34:38.062Z,95204.05
2019-05-29T02:37:07.306Z,95207.45
2019-05-29T02:39:36.627Z,95220.26
2019-05-29T02:42:06.219Z,95212.94
2019-05-29T02:44:35.407Z,95218.12
2019-05-29T02:47:04.647Z,95224.76
2019-05-29T02:49:34.284Z,95227.48
2019-05-29T02:52:03.519Z,95227.53
2019-05-29T02:54:33.023Z,95236.20
2019-05-29T02:57:02.641Z,95238.14
2019-05-29T02:59:32.232Z,95239.06
2019-05-29T03:02:02.826Z,95240.89
2019-05-29T03:04:33.053Z,95244.23
2019-05-29T03:07:42.992Z,95249.06
2019-05-29T03:13:20.878Z,95253.70
2019-05-29T03:16:08.771Z,95259.67
2019-05-29T03:18:21.392Z,95264.45
2019-05-29T03:20:50.921Z,95262.65
2019-05-29T03:23:20.229Z,95267.68
2019-05-29T03:25:49.752Z,95261.56
2019-05-29T03:28:18.993Z,95265.88
2019-05-29T03:30:48.189Z,95263.88
2019-05-29T03:33:17.444Z,95268.64
2019-05-29T03:35:48.487Z,95270.23
2019-05-29T03:38:17.555Z,95278.74
2019-05-29T03:40:47.172Z,95275.72
2019-05-29T03:43:16.353Z,95282.37
2019-05-29T03:45:45.600Z,95282.06
2019-05-29T03:48:14.792Z,95287.27
2019-05-29T03:50:44.039Z,95295.14
2019-05-29T03:53:13.227Z,95292.55
2019-05-29T03:55:42.476Z,95296.73
2019-05-29T03:58:11.667Z,95302.42
2019-05-29T04:00:46.038Z,95306.37
2019-05-29T04:03:12.199Z,95309.43
2019-05-29T04:05:41.449Z,95311.17
2019-05-29T04:08:10.647Z,95313.41
2019-05-29T04:11:19.258Z,95317.29
2019-05-29T04:13:48.844Z,95322.69
2019-05-29T04:22:32.870Z,95334.15
2019-05-29T04:25:43.063Z,95334.80
2019-05-29T04:28:12.665Z,95338.39
2019-05-29T04:30:41.907Z,95339.53
2019-05-29T04:33:11.107Z,95345.36
2019-05-29T04:35:40.362Z,95350.24
2019-05-29T04:38:09.544Z,95352.03
2019-05-29T04:40:39.579Z,95354.61
2019-05-29T04:43:09.705Z,95363.56
2019-05-29T04:45:40.147Z,95367.64
2019-05-29T04:48:10.549Z,95369.91
2019-05-29T04:50:40.608Z,95369.16
2019-05-29T04:53:10.709Z,95368.63
2019-05-29T04:55:40.031Z,95373.11
2019-05-29T04:58:09.271Z,95372.80
2019-05-29T05:00:39.363Z,95379.55
2019-05-29T05:03:09.422Z,95383.45
2019-05-29T05:05:39.576Z,95387.14
2019-05-29T05:08:09.623Z,95389.01
2019-05-29T05:10:41.128Z,95386.92
2019-05-29T05:13:10.486Z,95385.15
2019-05-29T05:15:40.248Z,95393.63
2019-05-29T05:18:50.171Z,95395.67
2019-05-29T05:21:19.359Z,95400.02
2019-05-29T05:23:48.604Z,95400.63
2019-05-29T05:26:17.909Z,95404.98
2019-05-29T05:28:47.458Z,95406.78
2019-05-29T05:31:18.241Z,95409.52
2019-05-29T05:33:47.481Z,95411.52
2019-05-29T05:36:17.045Z,95412.98
2019-05-29T05:38:46.294Z,95414.13
2019-05-29T05:41:15.486Z,95419.17
2019-05-29T05:43:44.678Z,95418.18
2019-05-29T05:46:13.918Z,95420.48
2019-05-29T05:48:43.113Z,95423.05
2019-05-29T05:51:12.360Z,95427.57
2019-05-29T05:53:41.962Z,95433.98
2019-05-29T05:56:11.237Z,95440.82
2019-05-29T05:58:40.416Z,95435.90
2019-05-29T06:01:09.654Z,95438.37
2019-05-29T06:06:48.169Z,95445.72
2019-05-29T06:09:17.355Z,95449.55
2019-05-29T06:11:46.597Z,95450.27
2019-05-29T06:14:16.111Z,95452.30
2019-05-29T06:16:45.346Z,95458.36
2019-05-29T06:19:14.593Z,95458.83
2019-05-29T06:21:44.390Z,95454.45
2019-05-29T06:24:13.697Z,95462.94
2019-05-29T06:26:43.099Z,95458.31
2019-05-29T06:29:12.626Z,95458.86
2019-05-29T06:32:00.883Z,95462.41
2019-05-29T06:34:30.528Z,95463.64
2019-05-29T06:37:00.425Z,95468.38
2019-05-29T06:39:30.029Z,95469.06
2019-05-29T06:41:59.373Z,95476.95
2019-05-29T06:44:28.570Z,95470.77
2019-05-29T06:46:58.169Z,95475.43
2019-05-29T06:49:27.800Z,95473.16
2019-05-29T06:51:57.797Z,95478.02
2019-05-29T06:54:27.595Z,95480.44
2019-05-29T06:56:57.205Z,95480.41
2019-05-29T06:59:26.690Z,95485.70
2019-05-29T07:01:56.731Z,95488.23
2019-05-29T07:04:25.913Z,95482.48
2019-05-29T07:06:55.510Z,95487.61
2019-05-29T07:09:25.019Z,95486.94
2019-05-29T07:11:54.256Z,95492.09
2019-05-29T07:14:23.459Z,95495.86
2019-05-29T07:16:56.186Z,95493.92
2019-05-29T07:19:26.809Z,95492.89
2019-05-29T07:21:55.100Z,95493.44
2019-05-29T07:24:24.300Z,95495.19
2019-05-29T07:26:53.549Z,95498.52
2019-05-29T07:29:23.537Z,95502.46
2019-05-29T07:31:52.791Z,95511.20
2019-05-29T07:34:22.623Z,95513.22
2019-05-29T07:36:52.263Z,95513.42
2019-05-29T07:39:21.798Z,95509.72
2019-05-29T07:41:51.163Z,95513.28
2019-05-29T07:44:20.498Z,95519.67
2019-05-29T07:46:49.801Z,95525.98
2019-05-29T07:49:19.016Z,95525.45
2019-05-29T07:51:48.824Z,95526.64
2019-05-29T07:54:19.208Z,95528.06
2019-05-29T07:56:48.705Z,95532.53
2019-05-29T07:59:19.480Z,95536.11
2019-05-29T08:01:49.311Z,95535.91
2019-05-29T08:04:20.063Z,95539.61
2019-05-29T08:06:54.231Z,95540.83
2019-05-29T08:09:20.366Z,95544.90
2019-05-29T08:11:50.126Z,95542.69
2019-05-29T08:14:20.532Z,95543.59
2019-05-29T08:16:50.166Z,95552.31
2019-05-29T08:19:20.755Z,95549.66
2019-05-29T08:21:50.606Z,95554.02
2019-05-29T08:24:24.718Z,95557.27
2019-05-29T08:26:52.323Z,95557.09
2019-05-29T08:29:21.573Z,95558.13
2019-05-29T08:31:51.030Z,95563.60
2019-05-29T08:34:21.689Z,95563.60
2019-05-29T08:37:10.011Z,95560.13
2019-05-29T08:39:39.247Z,95558.23
2019-05-29T08:42:22.500Z,95561.76
2019-05-29T08:44:39.404Z,95561.20
2019-05-29T08:47:10.857Z,95563.63
2019-05-29T08:49:39.579Z,95568.85
2019-05-29T08:55:02.662Z,95574.16
2019-05-29T08:57:32.209Z,95575.35
2019-05-29T09:00:01.725Z,95578.75
2019-05-29T09:02:30.991Z,95587.67
2019-05-29T09:05:00.252Z,95581.89
2019-05-29T09:07:50.051Z,95582.80
2019-05-29T09:10:19.776Z,95592.59
2019-05-29T09:12:56.759Z,95594.56
2019-05-29T09:15:59.365Z,95588.63
2019-05-29T09:18:28.634Z,95588.34
2019-05-29T09:21:03.333Z,95587.64
2019-05-29T09:23:28.874Z,95584.25
2019-05-29T09:26:13.634Z,95594.79
2019-05-29T09:28:27.997Z,95596.19
2019-05-29T09:30:57.192Z,95590.03
2019-05-29T09:33:33.248Z,95595.66
2019-05-29T09:36:02.856Z,95603.93
2019-05-29T09:38:32.148Z,95600.32
2019-05-29T09:41:01.423Z,95608.59
2019-05-29T09:43:31.026Z,95611.00
2019-05-29T09:46:02.381Z,95614.22
2019-05-29T09:51:20.596Z,95616.09
2019-05-29T09:53:38.403Z,95614.73
2019-05-29T09:56:07.601Z,95613.20
2019-05-29T09:58:37.259Z,95616.47
2019-05-29T10:01:22.264Z,95609.24
2019-05-29T10:03:38.576Z,95611.59
2019-05-29T10:06:09.492Z,95606.78
2019-05-29T10:08:39.496Z,95614.22
2019-05-29T10:11:10.832Z,95618.53
2019-05-29T10:13:40.171Z,95615.58
2019-05-29T10:16:09.401Z,95618.92
2019-05-29T10:18:38.752Z,95628.10
2019-05-29T10:21:08.234Z,95623.82
2019-05-29T10:23:37.441Z,95623.26
2019-05-29T10:26:06.708Z,95624.17
2019-05-29T10:28:50.173Z,95624.05
2019-05-29T10:31:06.963Z,95629.11
2019-05-29T10:33:36.551Z,95624.33
2019-05-29T10:36:05.840Z,95633.45
2019-05-29T10:38:35.383Z,95632.36
2019-05-29T10:41:07.154Z,95635.71
2019-05-29T10:43:35.976Z,95635.29
2019-05-29T10:46:05.311Z,95635.70
2019-05-29T10:48:34.862Z,95639.14
2019-05-29T10:51:04.119Z,95635.33
2019-05-29T10:53:33.783Z,95634.66
2019-05-29T10:56:03.858Z,95638.77
2019-05-29T10:58:48.061Z,95632.20
2019-05-29T11:01:04.076Z,95632.10
2019-05-29T11:03:33.321Z,95640.59
2019-05-29T11:06:02.530Z,95632.45
2019-05-29T11:08:31.780Z,95633.84
2019-05-29T11:11:20.099Z,95634.30
2019-05-29T11:13:50.525Z,95634.30
2019-05-29T11:16:40.099Z,95636.33
2019-05-29T11:19:10.618Z,95636.33
2019-05-29T11:21:39.861Z,95644.36
2019-05-29T11:24:49.939Z,95634.72
2019-05-29T11:27:19.403Z,95642.16
2019-05-29T11:29:48.797Z,95640.66
2019-05-29T11:32:19.586Z,95649.34
2019-05-29T11:34:49.040Z,95643.98
2019-05-29T11:37:18.217Z,95638.27
2019-05-29T11:39:47.422Z,95646.72
2019-05-29T11:42:26.999Z,95651.19
2019-05-29T11:44:47.712Z,95637.88
2019-05-29T11:47:17.007Z,95642.81
2019-05-29T11:49:46.194Z,95650.41
2019-05-29T11:52:24.477Z,95644.81
2019-05-29T11:54:47.307Z,95654.35
2019-05-29T11:57:16.924Z,95654.84
2019-05-29T11:59:46.148Z,95649.76
2019-05-29T12:02:15.343Z,95651.56
2019-05-29T12:04:45.019Z,95657.95
2019-05-29T12:07:14.248Z,95648.28
2019-05-29T12:09:43.496Z,95656.64
2019-05-29T12:12:12.699Z,95654.19
2019-05-29T12:14:59.071Z,95661.25
2019-05-29T12:17:12.973Z,95656.62
2019-05-29T12:19:42.276Z,95655.13
2019-05-29T12:22:11.756Z,95657.09
2019-05-29T12:24:40.997Z,95648.69
2019-05-29T12:27:10.590Z,95650.78
2019-05-29T12:29:40.201Z,95658.48
2019-05-29T12:32:11.649Z,95662.07
2019-05-29T12:37:14.900Z,95669.84
2019-05-29T12:39:44.175Z,95687.09
2019-05-29T12:42:13.359Z,95686.89
2019-05-29T12:44:42.935Z,95692.41
2019-05-29T12:47:31.263Z,95698.76
2019-05-29T12:50:00.978Z,95698.76
2019-05-29T12:52:31.436Z,95705.10
2019-05-29T12:55:00.641Z,95698.95
2019-05-29T12:57:30.216Z,95706.53
2019-05-29T13:00:00.307Z,95707.07
2019-05-29T13:05:45.437Z,95718.74
2019-05-29T13:08:14.692Z,95715.34
2019-05-29T13:10:43.950Z,95717.94
2019-05-29T13:13:13.433Z,95721.58
2019-05-29T13:15:42.973Z,95718.28
2019-05-29T13:18:31.153Z,95722.25
2019-05-29T13:21:00.961Z,95721.78
2019-05-29T13:23:44.310Z,95719.23
2019-05-29T13:26:03.683Z,95723.94
2019-05-29T13:28:34.107Z,95727.63
2019-05-29T13:31:04.593Z,95729.86
2019-05-29T13:33:34.967Z,95728.05
2019-05-29T13:36:04.591Z,95732.97
2019-05-29T13:38:36.207Z,95737.56
2019-05-29T13:41:07.749Z,95735.81
2019-05-29T13:43:38.451Z,95742.09
2019-05-29T13:46:07.713Z,95733.67
2019-05-29T13:48:37.362Z,95736.64
2019-05-29T13:51:07.379Z,95742.16
2019-05-29T13:56:11.835Z,95740.83
2019-05-29T13:58:41.077Z,95739.91
2019-05-29T14:01:10.323Z,95753.14
2019-05-29T14:03:39.563Z,95745.21
2019-05-29T14:06:09.547Z,95749.17
2019-05-29T14:08:39.727Z,95747.48
2019-05-29T14:11:09.137Z,95754.00
2019-05-29T14:13:39.935Z,95762.30
2019-05-29T14:16:09.287Z,95759.97
2019-05-29T14:18:38.465Z,95762.59
2019-05-29T14:21:09.256Z,95759.53
2019-05-29T14:23:39.924Z,95764.42
2019-05-29T14:26:10.082Z,95764.69
2019-05-29T14:28:39.706Z,95760.02
2019-05-29T14:31:10.036Z,95768.27
2019-05-29T14:33:39.878Z,95766.73
2019-05-29T14:36:09.516Z,95768.91
2019-05-29T14:38:39.172Z,95777.67
2019-05-29T14:41:09.821Z,95769.61
2019-05-29T14:43:39.665Z,95775.22
2019-05-29T14:46:10.178Z,95776.58
2019-05-29T14:48:40.179Z,95781.14
2019-05-29T14:51:10.602Z,95780.47
2019-05-29T14:53:40.725Z,95775.18
2019-05-29T14:56:10.638Z,95767.78
2019-05-29T14:58:40.900Z,95774.19
2019-05-29T15:01:11.275Z,95777.80
2019-05-29T15:03:41.525Z,95771.30
2019-05-29T15:06:11.726Z,95782.33
2019-05-29T15:09:03.531Z,95775.70
2019-05-29T15:11:32.803Z,95775.70
2019-05-29T15:14:02.101Z,95775.55
2019-05-29T15:16:50.399Z,95783.02
2019-05-29T15:19:31.308Z,95785.48
2019-05-29T15:22:00.611Z,95860.42
2019-05-29T15:24:29.802Z,95784.64
2019-05-29T15:26:59.411Z,95796.42
2019-05-29T15:29:28.599Z,95795.63
2019-05-29T15:32:10.346Z,95803.29
2019-05-29T15:34:29.126Z,95800.55
2019-05-29T15:36:58.742Z,95801.59
2019-05-29T15:39:28.258Z,95800.14
2019-05-29T15:41:57.488Z,95809.99
2019-05-29T15:44:27.072Z,95803.56
2019-05-29T15:46:56.350Z,95817.88
2019-05-29T15:49:25.526Z,95812.72
2019-05-29T15:51:54.772Z,95819.18
2019-05-29T15:54:23.986Z,95814.73
2019-05-29T15:56:53.228Z,95820.58
2019-05-29T15:59:22.421Z,95827.58
2019-05-29T16:01:51.679Z,95817.41
2019-05-29T16:04:20.878Z,95826.88
2019-05-29T16:06:50.136Z,95832.23
2019-05-29T16:09:19.389Z,95831.84
2019-05-29T16:11:48.592Z,95832.28
2019-05-29T16:14:19.033Z,95839.47
2019-05-29T16:16:48.781Z,95850.90
2019-05-29T16:19:18.439Z,95854.47
2019-05-29T16:21:47.687Z,95853.60
2019-05-29T16:24:17.292Z,95854.91
2019-05-29T16:26:46.483Z,95852.27
2019-05-29T16:31:55.484Z,95863.48
2019-05-29T16:34:24.732Z,95870.13
2019-05-29T16:36:53.918Z,95866.06
2019-05-29T16:39:42.246Z,95875.95
2019-05-29T16:42:11.947Z,95877.83
2019-05-29T16:44:42.715Z,95877.89
2019-05-29T16:47:12.483Z,95889.31
2019-05-29T16:49:43.249Z,95880.52
2019-05-29T16:52:12.891Z,95894.84
2019-05-29T16:54:43.632Z,95899.39
2019-05-29T16:57:13.433Z,95897.67
2019-05-29T16:59:42.638Z,95899.98
2019-05-29T17:02:13.529Z,95904.95
2019-05-29T17:04:42.824Z,95911.56
2019-05-29T17:07:12.083Z,95909.92
2019-05-29T17:09:41.293Z,95908.88
2019-05-29T17:12:10.534Z,95912.27
2019-05-29T17:14:39.738Z,95911.64
2019-05-29T17:17:09.003Z,95911.02
2019-05-29T17:20:18.718Z,95906.36
2019-05-29T17:22:48.931Z,95908.35
2019-05-29T17:25:18.925Z,95914.27
2019-05-29T17:27:49.140Z,95917.52
2019-05-29T17:31:01.787Z,95919.66
2019-05-29T17:36:03.561Z,95923.57
2019-05-29T17:38:33.152Z,95920.25
2019-05-29T17:41:02.700Z,95930.94
2019-05-29T17:43:32.557Z,95935.34
2019-05-29T17:46:01.790Z,95938.45
2019-05-29T17:48:31.161Z,95946.63
2019-05-29T17:51:00.355Z,95946.78
2019-05-29T17:53:30.109Z,95947.41
2019-05-29T17:55:59.418Z,95950.70
2019-05-29T17:58:28.664Z,95955.53
2019-05-29T18:00:57.866Z,95960.47
2019-05-29T18:03:27.103Z,95962.48
2019-05-29T18:05:56.732Z,95958.27
2019-05-29T18:08:26.948Z,95955.45
2019-05-29T18:10:57.314Z,95965.55
2019-05-29T18:13:27.443Z,95966.59
2019-05-29T18:15:57.549Z,95964.39
2019-05-29T18:18:27.839Z,95974.02
2019-05-29T18:20:58.614Z,95968.02
2019-05-29T18:23:28.222Z,95974.78
2019-05-29T18:25:59.187Z,95980.23
2019-05-29T18:28:28.402Z,95976.01
2019-05-29T18:30:57.618Z,95983.13
2019-05-29T18:33:26.862Z,95987.05
2019-05-29T18:35:56.735Z,95991.56
2019-05-29T18:38:26.468Z,95989.31
2019-05-29T18:40:57.645Z,95995.89
2019-05-29T18:43:27.058Z,95991.89
2019-05-29T18:45:56.320Z,96010.89
2019-05-29T18:48:25.515Z,96009.44
2019-05-29T18:51:13.692Z,96007.33
2019-05-29T18:53:42.886Z,96013.11
2019-05-29T18:56:12.135Z,96010.82
2019-05-29T18:58:41.595Z,96016.09
2019-05-29T19:01:10.847Z,96014.74
2019-05-29T19:03:40.633Z,96021.45
2019-05-29T19:06:31.853Z,96024.00
2019-05-29T19:09:01.765Z,96026.66
2019-05-29T19:11:31.991Z,96032.50
2019-05-29T19:14:03.163Z,96033.59
2019-05-29T19:16:32.459Z,96035.99
2019-05-29T19:19:01.665Z,96040.73
2019-05-29T19:21:30.980Z,96039.07
2019-05-29T19:24:00.586Z,96053.06
2019-05-29T19:26:33.684Z,96067.84
2019-05-29T19:29:00.798Z,96072.81
2019-05-29T19:34:18.685Z,96076.52
2019-05-29T19:36:47.887Z,96084.97
2019-05-29T19:39:17.463Z,96084.27
2019-05-29T19:41:46.677Z,96084.66
2019-05-29T19:44:18.183Z,96094.17
2019-05-29T19:46:53.804Z,96098.32
2019-05-29T19:49:19.405Z,96102.73
2019-05-29T19:51:48.608Z,96103.02
2019-05-29T19:54:18.179Z,96104.05
2019-05-29T19:56:47.687Z,96107.80
2019-05-29T19:59:17.287Z,96109.33
2019-05-29T20:01:46.494Z,96108.86
2019-05-29T20:04:15.793Z,96113.11
2019-05-29T20:06:44.989Z,96111.16
2019-05-29T20:09:14.242Z,96123.86
2019-05-29T20:11:43.445Z,96120.88
2019-05-29T20:16:48.441Z,96127.23
2019-05-29T20:19:17.688Z,96131.86
2019-05-29T20:21:47.413Z,96133.76
2019-05-29T20:24:16.681Z,96134.02
2019-05-29T20:26:46.243Z,96131.02
2019-05-29T20:29:15.461Z,96133.53
2019-05-29T20:31:44.712Z,96128.37
2019-05-29T20:34:13.912Z,96136.59
2019-05-29T20:36:43.548Z,96132.81
2019-05-29T20:39:12.765Z,96129.97
2019-05-29T20:41:43.541Z,96140.46
2019-05-29T20:44:12.974Z,96137.05
2019-05-29T20:46:42.802Z,96138.92
2019-05-29T20:49:13.188Z,96146.52
2019-05-29T20:51:42.467Z,96148.72
2019-05-29T20:59:58.741Z,96161.74
2019-05-29T21:02:28.010Z,96162.11
2019-05-29T21:04:57.609Z,96163.89
2019-05-29T21:07:27.607Z,96158.33
2019-05-29T21:09:56.811Z,96161.97
2019-05-29T21:12:26.069Z,96167.33
2019-05-29T21:14:55.645Z,96165.94
2019-05-29T21:17:25.290Z,96173.41
2019-05-29T21:19:54.978Z,96170.65
2019-05-29T21:22:24.255Z,96174.56
2019-05-29T21:25:01.873Z,96171.30
2019-05-29T21:27:24.469Z,96169.98
2019-05-29T21:29:54.142Z,96170.48
2019-05-29T21:32:23.417Z,96172.63
2019-05-29T21:34:52.750Z,96174.41
2019-05-29T21:37:22.381Z,96178.76
2019-05-29T21:39:51.597Z,96182.73
2019-05-29T21:42:20.868Z,96176.24
2019-05-29T21:44:50.093Z,96175.87
2019-05-29T21:47:20.277Z,96175.11
2019-05-29T21:49:50.190Z,96180.97
2019-05-29T21:52:19.711Z,96184.98
2019-05-29T21:54:48.981Z,96188.80
2019-05-29T21:57:18.246Z,96189.02
2019-05-29T22:00:07.962Z,96187.48
2019-05-29T22:02:38.255Z,96191.77
2019-05-29T22:05:48.770Z,96192.86
2019-05-29T22:08:19.231Z,96192.84
2019-05-29T22:10:48.500Z,96193.41
2019-05-29T22:13:17.740Z,96197.46
2019-05-29T22:15:47.046Z,96197.56
2019-05-29T22:18:16.317Z,96201.11
2019-05-29T22:20:45.564Z,96200.28
2019-05-29T22:25:49.483Z,96205.61
2019-05-29T22:28:18.827Z,96204.66
2019-05-29T22:30:48.391Z,96202.05
2019-05-29T22:33:17.666Z,96207.54
2019-05-29T22:35:46.885Z,96207.77
2019-05-29T22:38:16.438Z,96206.36
2019-05-29T22:40:45.641Z,96200.90
2019-05-29T22:43:14.887Z,96203.76
2019-05-29T22:45:44.079Z,96207.30
2019-05-29T22:48:13.320Z,96200.80
2019-05-29T22:50:42.515Z,96203.77
2019-05-29T22:53:12.521Z,96206.84
2019-05-29T22:55:41.708Z,96210.14
2019-05-29T22:58:11.220Z,96214.08
2019-05-29T23:00:40.805Z,96213.13
2019-05-29T23:03:10.361Z,96219.37
2019-05-29T23:05:39.612Z,96220.43
2019-05-29T23:08:08.810Z,96210.84
2019-05-29T23:10:38.062Z,96215.71
2019-05-29T23:13:07.535Z,96211.25
2019-05-29T23:15:37.442Z,96215.66
2019-05-29T23:18:06.631Z,96214.48
2019-05-29T23:20:35.910Z,96210.54
2019-05-29T23:23:05.087Z,96203.44
2019-05-29T23:25:34.324Z,96214.66
2019-05-29T23:28:03.540Z,96213.48
2019-05-29T23:30:33.184Z,96216.73
2019-05-29T23:33:03.396Z,96214.50
2019-05-29T23:35:33.326Z,96217.23
2019-05-29T23:38:03.477Z,96215.80
2019-05-29T23:40:33.767Z,96217.02
2019-05-29T23:45:38.091Z,96214.76
2019-05-29T23:48:07.274Z,96215.77
2019-05-29T23:50:36.444Z,96210.05
2019-05-29T23:53:05.960Z,96214.46
2019-05-29T23:55:35.150Z,96213.63
2019-05-29T23:58:08.197Z,96214.04
